sensor_id;sensor_type;location;lat;lon;timestamp;pressure;altitude;pressure_sealevel;temperature;humidity
24302;BME280;12421;49.732;20.078;2024-01-07T00:03:36;96008.55;;;-0.62;86.71
24302;BME280;12421;49.732;20.078;2024-01-07T00:13:40;96019.33;;;-0.76;86.44
24302;BME280;12421;49.732;20.078;2024-01-07T00:23:43;96029.32;;;-0.96;86.45
24302;BME280;12421;49.732;20.078;2024-01-07T00:33:46;96034.98;;;-1.05;86.64
24302;BME280;12421;49.732;20.078;2024-01-07T00:43:50;96040.14;;;-1.14;86.86
24302;BME280;12421;49.732;20.078;2024-01-07T00:53:53;96039.00;;;-1.20;86.90
24302;BME280;12421;49.732;20.078;2024-01-07T01:03:56;96045.50;;;-1.23;87.08
24302;BME280;12421;49.732;20.078;2024-01-07T01:14:01;96056.23;;;-1.28;86.29
24302;BME280;12421;49.732;20.078;2024-01-07T01:24:04;96062.59;;;-1.37;86.43
24302;BME280;12421;49.732;20.078;2024-01-07T01:34:08;96060.85;;;-1.47;86.65
24302;BME280;12421;49.732;20.078;2024-01-07T01:44:11;96068.37;;;-1.49;86.51
24302;BME280;12421;49.732;20.078;2024-01-07T01:54:14;96068.89;;;-1.48;86.30
24302;BME280;12421;49.732;20.078;2024-01-07T02:04:18;96077.67;;;-1.48;85.93
24302;BME280;12421;49.732;20.078;2024-01-07T02:14:21;96077.67;;;-1.56;85.85
24302;BME280;12421;49.732;20.078;2024-01-07T02:24:27;96076.80;;;-1.65;85.62
24302;BME280;12421;49.732;20.078;2024-01-07T02:34:30;96081.63;;;-1.79;85.38
24302;BME280;12421;49.732;20.078;2024-01-07T02:44:34;96082.73;;;-1.83;85.55
24302;BME280;12421;49.732;20.078;2024-01-07T02:54:38;96080.64;;;-1.92;85.19
24302;BME280;12421;49.732;20.078;2024-01-07T03:04:41;96088.30;;;-1.96;84.84
24302;BME280;12421;49.732;20.078;2024-01-07T03:14:44;96091.75;;;-2.02;84.44
24302;BME280;12421;49.732;20.078;2024-01-07T03:24:47;96091.11;;;-2.07;84.28
24302;BME280;12421;49.732;20.078;2024-01-07T03:34:51;96085.90;;;-2.24;83.92
24302;BME280;12421;49.732;20.078;2024-01-07T03:44:54;96096.31;;;-2.40;83.86
24302;BME280;12421;49.732;20.078;2024-01-07T03:54:57;96105.30;;;-2.51;83.92
24302;BME280;12421;49.732;20.078;2024-01-07T04:05:00;96112.29;;;-2.61;83.75
24302;BME280;12421;49.732;20.078;2024-01-07T04:15:04;96112.83;;;-2.66;83.98
24302;BME280;12421;49.732;20.078;2024-01-07T04:25:07;96112.14;;;-2.79;83.43
24302;BME280;12421;49.732;20.078;2024-01-07T04:35:11;96111.36;;;-2.83;83.30
24302;BME280;12421;49.732;20.078;2024-01-07T04:45:14;96126.91;;;-2.92;83.19
24302;BME280;12421;49.732;20.078;2024-01-07T04:55:18;96142.91;;;-3.09;82.81
24302;BME280;12421;49.732;20.078;2024-01-07T05:05:21;96152.27;;;-3.18;83.17
24302;BME280;12421;49.732;20.078;2024-01-07T05:15:24;96151.77;;;-3.29;82.91
24302;BME280;12421;49.732;20.078;2024-01-07T05:25:27;96166.77;;;-3.38;82.70
24302;BME280;12421;49.732;20.078;2024-01-07T05:35:31;96170.00;;;-3.50;82.85
24302;BME280;12421;49.732;20.078;2024-01-07T05:45:35;96173.48;;;-3.54;82.80
24302;BME280;12421;49.732;20.078;2024-01-07T05:55:38;96177.78;;;-3.54;82.68
24302;BME280;12421;49.732;20.078;2024-01-07T06:05:41;96187.70;;;-3.60;82.32
24302;BME280;12421;49.732;20.078;2024-01-07T06:15:44;96191.77;;;-3.67;82.21
24302;BME280;12421;49.732;20.078;2024-01-07T06:25:47;96201.45;;;-3.70;82.01
24302;BME280;12421;49.732;20.078;2024-01-07T06:35:50;96214.00;;;-3.74;81.87
24302;BME280;12421;49.732;20.078;2024-01-07T06:45:54;96224.08;;;-3.75;82.03
24302;BME280;12421;49.732;20.078;2024-01-07T06:55:57;96227.20;;;-3.79;82.09
24302;BME280;12421;49.732;20.078;2024-01-07T07:06:00;96238.26;;;-3.77;82.24
24302;BME280;12421;49.732;20.078;2024-01-07T07:16:03;96244.13;;;-3.70;81.97
24302;BME280;12421;49.732;20.078;2024-01-07T07:26:07;96246.34;;;-3.66;81.92
24302;BME280;12421;49.732;20.078;2024-01-07T07:36:11;96258.83;;;-3.56;81.21
24302;BME280;12421;49.732;20.078;2024-01-07T07:46:14;96263.48;;;-3.55;80.75
24302;BME280;12421;49.732;20.078;2024-01-07T07:56:19;96277.48;;;-3.47;80.66
24302;BME280;12421;49.732;20.078;2024-01-07T08:06:22;96284.23;;;-3.35;80.45
24302;BME280;12421;49.732;20.078;2024-01-07T08:16:26;96291.79;;;-3.29;79.83
24302;BME280;12421;49.732;20.078;2024-01-07T08:26:29;96299.02;;;-3.28;79.31
24302;BME280;12421;49.732;20.078;2024-01-07T08:36:32;96308.19;;;-3.20;79.17
24302;BME280;12421;49.732;20.078;2024-01-07T08:46:36;96318.11;;;-3.27;78.37
24302;BME280;12421;49.732;20.078;2024-01-07T08:56:39;96322.36;;;-3.22;78.02
24302;BME280;12421;49.732;20.078;2024-01-07T09:06:44;96326.58;;;-3.25;77.48
24302;BME280;12421;49.732;20.078;2024-01-07T09:16:47;96327.66;;;-3.18;77.26
24302;BME280;12421;49.732;20.078;2024-01-07T09:26:50;96328.51;;;-3.24;76.44
24302;BME280;12421;49.732;20.078;2024-01-07T09:36:54;96335.72;;;-3.29;76.69
24302;BME280;12421;49.732;20.078;2024-01-07T09:46:58;96331.39;;;-3.08;77.04
24302;BME280;12421;49.732;20.078;2024-01-07T09:57:03;96335.23;;;-2.84;76.11
24302;BME280;12421;49.732;20.078;2024-01-07T10:07:09;96336.56;;;-2.86;75.83
24302;BME280;12421;49.732;20.078;2024-01-07T10:17:16;96328.04;;;-2.84;75.47
24302;BME280;12421;49.732;20.078;2024-01-07T10:27:22;96331.77;;;-2.91;74.96
24302;BME280;12421;49.732;20.078;2024-01-07T10:37:25;96327.30;;;-2.79;75.35
24302;BME280;12421;49.732;20.078;2024-01-07T10:47:31;96323.15;;;-2.80;74.61
24302;BME280;12421;49.732;20.078;2024-01-07T10:57:44;96315.39;;;-2.58;74.68
24302;BME280;12421;49.732;20.078;2024-01-07T11:08:21;96310.66;;;-2.61;73.96
24302;BME280;12421;49.732;20.078;2024-01-07T11:18:27;96313.39;;;-2.50;74.63
24302;BME280;12421;49.732;20.078;2024-01-07T11:38:50;96316.85;;;-2.32;74.00
24302;BME280;12421;49.732;20.078;2024-01-07T11:48:58;96318.70;;;-2.39;73.47
24302;BME280;12421;49.732;20.078;2024-01-07T11:59:02;96317.30;;;-2.46;73.40
24302;BME280;12421;49.732;20.078;2024-01-07T12:09:05;96321.56;;;-2.76;73.10
24302;BME280;12421;49.732;20.078;2024-01-07T12:19:09;96338.61;;;-3.03;73.98
24302;BME280;12421;49.732;20.078;2024-01-07T12:29:13;96347.30;;;-3.20;73.54
24302;BME280;12421;49.732;20.078;2024-01-07T12:39:17;96355.23;;;-3.36;74.38
24302;BME280;12421;49.732;20.078;2024-01-07T12:49:21;96365.49;;;-3.57;74.02
24302;BME280;12421;49.732;20.078;2024-01-07T12:59:25;96368.02;;;-3.58;74.88
24302;BME280;12421;49.732;20.078;2024-01-07T13:09:29;96386.27;;;-3.70;74.98
24302;BME280;12421;49.732;20.078;2024-01-07T13:19:35;96395.04;;;-3.85;75.26
24302;BME280;12421;49.732;20.078;2024-01-07T13:29:38;96401.13;;;-4.01;75.85
24302;BME280;12421;49.732;20.078;2024-01-07T13:39:42;96412.44;;;-4.06;76.23
24302;BME280;12421;49.732;20.078;2024-01-07T13:49:45;96422.36;;;-4.11;76.33
24302;BME280;12421;49.732;20.078;2024-01-07T13:59:50;96433.17;;;-4.06;76.54
24302;BME280;12421;49.732;20.078;2024-01-07T14:09:53;96444.17;;;-4.23;75.72
24302;BME280;12421;49.732;20.078;2024-01-07T14:19:56;96457.96;;;-4.52;76.30
24302;BME280;12421;49.732;20.078;2024-01-07T14:30:00;96469.70;;;-4.63;76.52
24302;BME280;12421;49.732;20.078;2024-01-07T14:40:04;96481.48;;;-4.81;76.18
24302;BME280;12421;49.732;20.078;2024-01-07T14:50:08;96485.59;;;-5.02;76.14
24302;BME280;12421;49.732;20.078;2024-01-07T15:00:12;96487.84;;;-5.17;76.55
24302;BME280;12421;49.732;20.078;2024-01-07T15:10:20;96489.80;;;-5.07;76.72
24302;BME280;12421;49.732;20.078;2024-01-07T15:20:26;96495.55;;;-5.09;77.26
24302;BME280;12421;49.732;20.078;2024-01-07T15:30:29;96507.80;;;-5.07;77.56
24302;BME280;12421;49.732;20.078;2024-01-07T15:40:33;96512.19;;;-5.16;77.85
24302;BME280;12421;49.732;20.078;2024-01-07T15:50:36;96521.47;;;-5.23;77.41
24302;BME280;12421;49.732;20.078;2024-01-07T16:00:39;96523.56;;;-5.30;77.25
24302;BME280;12421;49.732;20.078;2024-01-07T16:10:46;96530.39;;;-5.30;77.38
24302;BME280;12421;49.732;20.078;2024-01-07T16:20:49;96545.38;;;-5.40;77.67
24302;BME280;12421;49.732;20.078;2024-01-07T16:30:52;96555.42;;;-5.37;77.55
24302;BME280;12421;49.732;20.078;2024-01-07T16:40:58;96569.89;;;-5.43;76.62
24302;BME280;12421;49.732;20.078;2024-01-07T16:51:02;96571.77;;;-5.58;76.91
24302;BME280;12421;49.732;20.078;2024-01-07T17:01:05;96586.13;;;-5.61;77.19
24302;BME280;12421;49.732;20.078;2024-01-07T17:11:09;96596.27;;;-5.72;77.52
24302;BME280;12421;49.732;20.078;2024-01-07T17:21:12;96600.70;;;-5.72;77.49
24302;BME280;12421;49.732;20.078;2024-01-07T17:31:16;96619.58;;;-5.82;77.17
24302;BME280;12421;49.732;20.078;2024-01-07T17:41:19;96630.91;;;-6.10;76.15
24302;BME280;12421;49.732;20.078;2024-01-07T17:51:23;96643.72;;;-6.31;76.56
24302;BME280;12421;49.732;20.078;2024-01-07T18:01:28;96648.21;;;-6.41;76.95
24302;BME280;12421;49.732;20.078;2024-01-07T18:11:33;96656.84;;;-6.42;77.46
24302;BME280;12421;49.732;20.078;2024-01-07T18:21:38;96668.55;;;-6.47;76.93
24302;BME280;12421;49.732;20.078;2024-01-07T18:31:41;96682.67;;;-6.48;77.55
24302;BME280;12421;49.732;20.078;2024-01-07T18:41:47;96695.45;;;-6.58;76.97
24302;BME280;12421;49.732;20.078;2024-01-07T18:51:50;96696.20;;;-6.67;77.53
24302;BME280;12421;49.732;20.078;2024-01-07T19:01:53;96714.52;;;-6.70;77.08
24302;BME280;12421;49.732;20.078;2024-01-07T19:11:57;96729.17;;;-6.93;76.25
24302;BME280;12421;49.732;20.078;2024-01-07T19:22:01;96748.18;;;-7.08;76.32
24302;BME280;12421;49.732;20.078;2024-01-07T19:32:07;96756.80;;;-7.19;76.08
24302;BME280;12421;49.732;20.078;2024-01-07T19:42:11;96753.79;;;-7.20;76.72
24302;BME280;12421;49.732;20.078;2024-01-07T19:52:19;96751.20;;;-7.12;76.64
24302;BME280;12421;49.732;20.078;2024-01-07T20:02:22;96759.58;;;-7.08;76.53
24302;BME280;12421;49.732;20.078;2024-01-07T20:12:26;96766.23;;;-7.02;76.22
24302;BME280;12421;49.732;20.078;2024-01-07T20:22:38;96772.96;;;-6.87;77.08
24302;BME280;12421;49.732;20.078;2024-01-07T20:32:41;96779.61;;;-6.84;76.64
24302;BME280;12421;49.732;20.078;2024-01-07T20:42:45;96789.80;;;-6.91;76.32
24302;BME280;12421;49.732;20.078;2024-01-07T20:52:48;96799.05;;;-6.88;77.10
24302;BME280;12421;49.732;20.078;2024-01-07T21:02:53;96808.83;;;-6.87;76.31
24302;BME280;12421;49.732;20.078;2024-01-07T21:12:56;96821.00;;;-6.92;75.87
24302;BME280;12421;49.732;20.078;2024-01-07T21:23:02;96826.71;;;-6.84;75.97
24302;BME280;12421;49.732;20.078;2024-01-07T21:33:09;96835.16;;;-6.85;76.46
24302;BME280;12421;49.732;20.078;2024-01-07T21:43:12;96836.18;;;-6.82;76.77
24302;BME280;12421;49.732;20.078;2024-01-07T21:53:15;96844.02;;;-6.77;76.23
24302;BME280;12421;49.732;20.078;2024-01-07T22:03:19;96845.75;;;-6.85;76.08
24302;BME280;12421;49.732;20.078;2024-01-07T22:13:22;96850.39;;;-6.94;76.55
24302;BME280;12421;49.732;20.078;2024-01-07T22:23:25;96858.58;;;-6.97;76.31
24302;BME280;12421;49.732;20.078;2024-01-07T22:33:28;96872.02;;;-7.19;75.19
24302;BME280;12421;49.732;20.078;2024-01-07T22:43:34;96884.73;;;-7.36;75.42
24302;BME280;12421;49.732;20.078;2024-01-07T22:53:37;96894.11;;;-7.60;75.44
24302;BME280;12421;49.732;20.078;2024-01-07T23:03:40;96905.45;;;-7.84;75.01
24302;BME280;12421;49.732;20.078;2024-01-07T23:13:44;96915.25;;;-7.94;75.39
24302;BME280;12421;49.732;20.078;2024-01-07T23:23:47;96921.34;;;-7.89;75.70
24302;BME280;12421;49.732;20.078;2024-01-07T23:33:50;96930.74;;;-7.83;75.41
24302;BME280;12421;49.732;20.078;2024-01-07T23:43:54;96932.98;;;-7.82;75.19
24302;BME280;12421;49.732;20.078;2024-01-07T23:53:57;96947.87;;;-7.95;74.81
